Terminal Aerodrome Forecast
Issued by NWS

Home | Current Version | Previous Version | Text Only | Print | Product List | Glossary On
Versions: 1 2 3 4 5 6 7 8 9 10 11 12 13 14 15 16 17 18 19 20 21 22 23
000
FTUS45 KGJT 302341
TAFVEL
TAF
KVEL 302341Z 3100/3124 20009KT P6SM VCSH OVC080
     FM310100 29008KT P6SM VCSH BKN080
     FM310500 01008KT P6SM -SHRA BKN070
     FM311200 03012G20KT P6SM VCSH BKN070
     FM312000 02024G43KT P6SM -SHRA BKN070=

USA.gov is the U.S. government's official web portal to all federal, state and local government web resources and services.